createdAt,value
2022-11-05T00:00:59.618Z,15.07
2022-11-05T00:03:44.393Z,16.50
2022-11-05T00:06:29.798Z,15.50
2022-11-05T00:09:15.346Z,16.73
2022-11-05T00:12:00.571Z,15.80
2022-11-05T00:14:45.721Z,13.45
2022-11-05T00:17:12.426Z,12.52
2022-11-05T00:19:38.980Z,12.63
2022-11-05T00:22:24.098Z,11.10
2022-11-05T00:25:09.564Z,12.13
2022-11-05T00:27:36.322Z,9.90
2022-11-05T00:30:02.882Z,11.60
2022-11-05T00:32:29.370Z,12.55
2022-11-05T00:34:55.828Z,14.43
2022-11-05T00:37:22.312Z,20.30
2022-11-05T00:39:48.789Z,19.90
2022-11-05T00:42:33.906Z,14.48
2022-11-05T00:45:03.118Z,11.40
2022-11-05T00:47:49.990Z,11.82
2022-11-05T00:50:17.839Z,11.93
2022-11-05T00:52:56.601Z,9.73
2022-11-05T00:55:30.054Z,10.10
2022-11-05T00:57:57.616Z,8.65
2022-11-05T01:00:27.175Z,9.00
2022-11-05T01:02:54.059Z,9.48
2022-11-05T01:05:20.630Z,8.75
2022-11-05T01:07:47.423Z,9.25
2022-11-05T01:10:13.993Z,8.57
2022-11-05T01:12:40.512Z,8.98
2022-11-05T01:15:07.487Z,9.38
2022-11-05T01:17:34.464Z,11.32
2022-11-05T01:20:01.393Z,16.45
2022-11-05T01:22:27.893Z,12.57
2022-11-05T01:24:54.537Z,15.98
2022-11-05T01:27:21.056Z,13.50
2022-11-05T01:29:48.529Z,10.35
2022-11-05T01:32:15.129Z,9.18
2022-11-05T01:34:41.605Z,12.25
2022-11-05T01:37:08.278Z,17.10
2022-11-05T01:39:34.745Z,9.40
2022-11-05T01:42:01.419Z,8.82
2022-11-05T01:44:49.804Z,19.05
2022-11-05T01:47:36.217Z,14.20
2022-11-05T01:50:12.814Z,10.65
2022-11-05T01:52:39.554Z,9.80
2022-11-05T01:55:10.035Z,8.40
2022-11-05T01:57:36.658Z,9.25
2022-11-05T02:00:04.129Z,9.02
2022-11-05T02:02:31.277Z,8.65
2022-11-05T02:05:02.144Z,8.88
2022-11-05T02:07:30.299Z,8.80
2022-11-05T02:10:06.453Z,9.35
2022-11-05T02:12:34.300Z,8.80
2022-11-05T02:15:00.803Z,9.20
2022-11-05T02:17:42.476Z,9.15
2022-11-05T02:20:19.037Z,9.05
2022-11-05T02:23:10.326Z,9.13
2022-11-05T02:26:07.902Z,9.30
2022-11-05T02:29:09.782Z,9.52
2022-11-05T02:31:40.845Z,8.98
2022-11-05T02:34:39.633Z,8.48
2022-11-05T02:37:12.123Z,8.75
2022-11-05T02:39:50.714Z,8.32
2022-11-05T02:42:48.573Z,10.48
2022-11-05T02:45:38.273Z,12.90
2022-11-05T02:48:20.124Z,8.50
2022-11-05T02:50:59.081Z,8.60
2022-11-05T02:53:34.282Z,9.52
2022-11-05T02:56:05.730Z,9.50
2022-11-05T02:58:34.866Z,10.85
2022-11-05T03:01:06.706Z,8.93
2022-11-05T03:03:45.358Z,9.32
2022-11-05T03:06:11.806Z,9.82
2022-11-05T03:08:56.093Z,10.25
2022-11-05T03:11:26.932Z,9.68
2022-11-05T03:14:20.679Z,10.38
2022-11-05T03:16:57.909Z,8.35
2022-11-05T03:19:47.926Z,10.52
2022-11-05T03:22:22.942Z,9.68
2022-11-05T03:24:55.293Z,10.70
2022-11-05T03:27:30.355Z,10.10
2022-11-05T03:30:03.349Z,9.70
2022-11-05T03:32:34.788Z,10.70
2022-11-05T03:35:15.188Z,9.45
2022-11-05T03:37:43.858Z,8.65
2022-11-05T03:40:12.657Z,8.52
2022-11-05T03:42:45.183Z,8.43
2022-11-05T03:45:19.167Z,9.10
2022-11-05T03:47:47.738Z,11.18
2022-11-05T03:50:28.947Z,8.43
2022-11-05T03:53:19.796Z,8.02
2022-11-05T03:55:52.854Z,8.40
2022-11-05T03:58:21.482Z,8.80
2022-11-05T04:00:49.587Z,7.72
2022-11-05T04:03:16.456Z,8.32
2022-11-05T04:05:43.327Z,8.85
2022-11-05T04:08:28.700Z,8.10
2022-11-05T04:11:13.355Z,7.63
2022-11-05T04:13:39.811Z,7.50
2022-11-05T04:16:24.850Z,9.32
2022-11-05T04:18:51.291Z,9.60
2022-11-05T04:21:36.243Z,8.93
2022-11-05T04:24:08.513Z,8.80
2022-11-05T04:26:40.713Z,8.50
2022-11-05T04:29:27.063Z,7.75
2022-11-05T04:31:54.364Z,8.15
2022-11-05T04:34:22.184Z,9.13
2022-11-05T04:36:49.958Z,10.65
2022-11-05T04:39:20.539Z,9.05
2022-11-05T04:41:48.215Z,8.63
2022-11-05T04:44:15.998Z,7.32
2022-11-05T04:46:42.811Z,6.70
2022-11-05T04:49:09.267Z,7.30
2022-11-05T04:51:35.749Z,7.82
2022-11-05T04:54:02.335Z,6.82
2022-11-05T04:56:28.886Z,7.70
2022-11-05T04:58:55.408Z,7.13
2022-11-05T05:01:23.552Z,7.00
2022-11-05T05:03:51.697Z,7.88
2022-11-05T05:06:19.092Z,6.63
2022-11-05T05:08:49.822Z,7.60
2022-11-05T05:11:19.644Z,7.18
2022-11-05T05:13:46.462Z,7.28
2022-11-05T05:16:25.395Z,7.70
2022-11-05T05:18:53.282Z,7.80
2022-11-05T05:21:40.551Z,8.95
2022-11-05T05:24:08.830Z,8.52
2022-11-05T05:26:40.700Z,8.05
2022-11-05T05:29:07.570Z,8.70
2022-11-05T05:31:34.534Z,9.38
2022-11-05T05:34:01.179Z,9.07
2022-11-05T05:36:28.191Z,8.55
2022-11-05T05:38:54.795Z,8.80
2022-11-05T05:41:21.570Z,9.00
2022-11-05T05:43:48.152Z,11.32
2022-11-05T05:46:15.815Z,9.38
2022-11-05T05:48:43.248Z,9.20
2022-11-05T05:51:11.669Z,8.70
2022-11-05T05:53:38.859Z,8.93
2022-11-05T05:56:06.117Z,8.65
2022-11-05T05:58:39.324Z,8.38
2022-11-05T06:01:10.988Z,9.55
2022-11-05T06:03:40.893Z,8.77
2022-11-05T06:06:10.197Z,8.25
2022-11-05T06:08:36.867Z,9.85
2022-11-05T06:11:04.394Z,7.90
2022-11-05T06:13:31.742Z,10.77
2022-11-05T06:16:02.688Z,10.52
2022-11-05T06:18:30.047Z,10.07
2022-11-05T06:21:11.124Z,10.27
2022-11-05T06:23:39.034Z,11.23
2022-11-05T06:26:08.490Z,9.60
2022-11-05T06:28:35.265Z,7.85
2022-11-05T06:31:02.184Z,8.35
2022-11-05T06:33:28.950Z,8.63
2022-11-05T06:35:59.094Z,8.88
2022-11-05T06:40:51.993Z,9.52
2022-11-05T06:43:18.531Z,8.95
2022-11-05T06:45:45.026Z,9.18
2022-11-05T06:48:11.466Z,8.82
2022-11-05T06:50:38.163Z,8.55
2022-11-05T06:53:05.589Z,8.35
2022-11-05T06:55:32.255Z,8.65
2022-11-05T06:57:58.986Z,7.75
2022-11-05T07:00:26.033Z,9.52
2022-11-05T07:02:52.631Z,8.57
2022-11-05T07:05:19.127Z,7.35
2022-11-05T07:07:46.030Z,6.72
2022-11-05T07:10:15.195Z,7.93
2022-11-05T07:12:42.021Z,8.80
2022-11-05T07:15:10.351Z,6.55
2022-11-05T07:17:36.874Z,6.85
2022-11-05T07:20:04.637Z,5.97
2022-11-05T07:22:31.155Z,6.80
2022-11-05T07:24:57.817Z,7.45
2022-11-05T07:27:24.317Z,6.63
2022-11-05T07:29:50.819Z,8.32
2022-11-05T07:32:17.360Z,9.77
2022-11-05T07:34:43.838Z,5.80
2022-11-05T07:37:10.525Z,8.02
2022-11-05T07:39:37.025Z,5.38
2022-11-05T07:42:03.682Z,3.95
2022-11-05T07:44:30.177Z,4.55
2022-11-05T07:46:56.667Z,6.00
2022-11-05T07:49:23.898Z,4.45
2022-11-05T07:51:50.457Z,5.43
2022-11-05T07:54:17.112Z,5.13
2022-11-05T07:56:43.628Z,4.93
2022-11-05T07:59:10.121Z,5.65
2022-11-05T08:01:36.798Z,5.03
2022-11-05T08:04:03.499Z,5.40
2022-11-05T08:06:29.987Z,4.47
2022-11-05T08:08:56.478Z,6.65
2022-11-05T08:11:22.991Z,6.43
2022-11-05T08:13:49.457Z,4.60
2022-11-05T08:16:16.027Z,4.47
2022-11-05T08:18:42.511Z,5.38
2022-11-05T08:21:09.558Z,5.65
2022-11-05T08:23:36.121Z,5.85
2022-11-05T08:26:03.848Z,5.55
2022-11-05T08:28:30.397Z,5.00
2022-11-05T08:30:57.604Z,3.97
2022-11-05T08:33:25.274Z,5.05
2022-11-05T08:35:51.802Z,4.07
2022-11-05T08:38:20.002Z,5.43
2022-11-05T08:40:55.046Z,3.40
2022-11-05T08:43:21.743Z,3.22
2022-11-05T08:45:48.239Z,3.25
2022-11-05T08:48:17.106Z,3.22
2022-11-05T08:50:44.887Z,4.22
2022-11-05T08:53:12.286Z,2.92
2022-11-05T08:55:39.115Z,3.95
2022-11-05T08:58:10.686Z,3.63
2022-11-05T09:00:37.578Z,4.47
2022-11-05T09:03:05.791Z,3.47
2022-11-05T09:05:38.112Z,2.90
2022-11-05T09:08:12.658Z,3.50
2022-11-05T09:10:40.305Z,4.68
2022-11-05T09:13:07.142Z,6.13
2022-11-05T09:15:35.495Z,6.45
2022-11-05T09:18:03.259Z,6.63
2022-11-05T09:20:29.954Z,7.15
2022-11-05T09:22:56.472Z,6.50
2022-11-05T09:25:22.968Z,6.32
2022-11-05T09:27:49.530Z,8.27
2022-11-05T09:30:16.393Z,7.65
2022-11-05T09:32:42.859Z,8.18
2022-11-05T09:35:09.964Z,4.82
2022-11-05T09:37:37.363Z,6.93
2022-11-05T09:40:04.564Z,5.30
2022-11-05T09:42:37.984Z,5.63
2022-11-05T09:45:16.897Z,5.53
2022-11-05T09:47:49.511Z,6.07
2022-11-05T09:50:35.543Z,7.30
2022-11-05T09:53:03.940Z,4.72
2022-11-05T09:55:37.286Z,4.95
2022-11-05T09:58:13.613Z,5.78
2022-11-05T10:00:40.490Z,5.55
2022-11-05T10:03:12.423Z,6.60
2022-11-05T10:05:40.587Z,5.43
2022-11-05T10:08:23.659Z,6.63
2022-11-05T10:10:54.922Z,5.95
2022-11-05T10:13:42.261Z,5.18
2022-11-05T10:16:26.123Z,4.72
2022-11-05T10:19:09.739Z,5.38
2022-11-05T10:22:04.845Z,5.10
2022-11-05T10:24:24.464Z,4.82
2022-11-05T10:26:53.081Z,4.13
2022-11-05T10:29:29.557Z,7.32
2022-11-05T10:32:01.076Z,7.97
2022-11-05T10:34:32.146Z,6.22
2022-11-05T10:36:59.112Z,6.10
2022-11-05T10:39:27.836Z,6.25
2022-11-05T10:41:54.342Z,5.38
2022-11-05T10:44:36.087Z,6.05
2022-11-05T10:47:09.030Z,4.93
2022-11-05T10:49:41.410Z,6.22
2022-11-05T10:52:35.876Z,5.43
2022-11-05T10:55:30.056Z,5.22
2022-11-05T10:58:29.006Z,4.80
2022-11-05T11:00:55.547Z,4.53
2022-11-05T11:03:46.903Z,5.22
2022-11-05T11:06:21.892Z,5.15
2022-11-05T11:08:50.320Z,5.25
2022-11-05T11:11:46.113Z,5.88
2022-11-05T11:14:12.575Z,6.63
2022-11-05T11:16:44.331Z,5.75
2022-11-05T11:19:32.016Z,5.30
2022-11-05T11:22:14.077Z,5.63
2022-11-05T11:24:48.194Z,6.60
2022-11-05T11:27:22.566Z,4.70
2022-11-05T11:29:55.030Z,4.90
2022-11-05T11:32:21.817Z,4.93
2022-11-05T11:34:53.956Z,4.18
2022-11-05T11:37:28.524Z,4.10
2022-11-05T11:39:59.701Z,4.75
2022-11-05T11:42:34.118Z,4.85
2022-11-05T11:45:06.293Z,5.93
2022-11-05T11:47:33.587Z,4.75
2022-11-05T11:50:01.671Z,5.88
2022-11-05T11:52:32.293Z,7.50
2022-11-05T11:55:13.712Z,30.95
2022-11-05T11:57:49.679Z,9.18
2022-11-05T12:00:18.063Z,12.70
2022-11-05T12:03:12.134Z,10.85
2022-11-05T12:06:11.114Z,11.60
2022-11-05T12:09:06.697Z,6.13
2022-11-05T12:11:43.777Z,6.68
2022-11-05T12:14:26.920Z,6.82
2022-11-05T12:17:12.947Z,7.10
2022-11-05T12:20:02.048Z,7.28
2022-11-05T12:23:06.127Z,7.90
2022-11-05T12:25:54.425Z,6.72
2022-11-05T12:28:30.095Z,9.50
2022-11-05T12:31:05.555Z,5.97
2022-11-05T12:33:47.173Z,6.55
2022-11-05T12:36:37.044Z,6.85
2022-11-05T12:39:28.481Z,5.47
2022-11-05T12:42:19.022Z,4.90
2022-11-05T12:44:53.156Z,4.43
2022-11-05T12:47:49.204Z,5.63
2022-11-05T12:50:28.007Z,4.03
2022-11-05T12:52:57.467Z,4.07
2022-11-05T12:55:36.979Z,3.60
2022-11-05T12:58:39.191Z,3.80
2022-11-05T13:01:18.213Z,6.20
2022-11-05T13:03:54.738Z,15.23
2022-11-05T13:06:27.629Z,6.80
2022-11-05T13:09:03.010Z,4.70
2022-11-05T13:11:49.550Z,3.22
2022-11-05T13:14:23.060Z,3.35
2022-11-05T13:17:02.297Z,3.92
2022-11-05T13:19:44.544Z,3.77
2022-11-05T13:22:39.956Z,3.30
2022-11-05T13:25:28.631Z,2.80
2022-11-05T13:28:32.842Z,3.33
2022-11-05T13:31:02.336Z,2.45
2022-11-05T13:33:37.917Z,2.65
2022-11-05T13:36:31.643Z,3.65
2022-11-05T13:39:01.404Z,6.50
2022-11-05T13:41:52.654Z,4.63
2022-11-05T13:44:47.557Z,2.42
2022-11-05T13:47:28.237Z,1.83
2022-11-05T13:50:19.591Z,1.98
2022-11-05T13:53:23.594Z,2.08
2022-11-05T13:56:03.165Z,1.60
2022-11-05T13:58:46.611Z,2.13
2022-11-05T14:01:26.751Z,3.00
2022-11-05T14:03:55.476Z,2.88
2022-11-05T14:06:40.094Z,2.42
2022-11-05T14:09:11.909Z,2.17
2022-11-05T14:11:43.167Z,2.05
2022-11-05T14:14:28.884Z,2.45
2022-11-05T14:17:17.263Z,2.03
2022-11-05T14:20:04.667Z,2.50
2022-11-05T14:22:31.097Z,2.10
2022-11-05T14:25:02.620Z,2.08
2022-11-05T14:27:29.090Z,2.10
2022-11-05T14:29:55.932Z,3.53
2022-11-05T14:32:25.359Z,4.82
2022-11-05T14:35:04.969Z,5.75
2022-11-05T14:37:36.953Z,3.78
2022-11-05T14:40:37.080Z,5.97
2022-11-05T14:45:56.736Z,3.72
2022-11-05T14:48:41.002Z,2.80
2022-11-05T14:51:31.636Z,3.40
2022-11-05T14:54:03.370Z,3.70
2022-11-05T14:56:47.181Z,2.80
2022-11-05T14:59:24.787Z,4.78
2022-11-05T15:01:54.471Z,4.35
2022-11-05T15:04:32.510Z,2.90
2022-11-05T15:07:01.850Z,2.50
2022-11-05T15:09:35.278Z,3.33
2022-11-05T15:12:16.586Z,6.28
2022-11-05T15:14:57.432Z,2.67
2022-11-05T15:17:41.311Z,2.40
2022-11-05T15:20:14.364Z,2.47
2022-11-05T15:22:44.623Z,3.88
2022-11-05T15:25:29.387Z,2.55
2022-11-05T15:28:06.400Z,3.63
2022-11-05T15:30:33.498Z,2.42
2022-11-05T15:33:21.452Z,3.17
2022-11-05T15:35:48.212Z,2.22
2022-11-05T15:38:30.670Z,2.70
2022-11-05T15:41:03.978Z,2.80
2022-11-05T15:43:31.078Z,2.78
2022-11-05T15:46:07.285Z,3.53
2022-11-05T15:48:35.925Z,1.95
2022-11-05T15:51:02.635Z,2.33
2022-11-05T15:56:26.813Z,1.80
2022-11-05T15:58:59.404Z,1.92
2022-11-05T16:01:37.873Z,2.33
2022-11-05T16:04:19.065Z,4.30
2022-11-05T16:06:48.883Z,4.32
2022-11-05T16:09:30.432Z,5.07
2022-11-05T16:12:18.295Z,5.25
2022-11-05T16:15:08.010Z,8.32
2022-11-05T16:17:37.491Z,6.72
2022-11-05T16:20:38.717Z,5.05
2022-11-05T16:23:21.745Z,5.03
2022-11-05T16:25:48.405Z,5.15
2022-11-05T16:28:27.193Z,6.20
2022-11-05T16:30:59.711Z,6.53
2022-11-05T16:33:31.793Z,5.85
2022-11-05T16:35:58.363Z,7.13
2022-11-05T16:38:25.083Z,4.63
2022-11-05T16:40:51.573Z,6.13
2022-11-05T16:43:22.314Z,4.82
2022-11-05T16:45:49.258Z,3.88
2022-11-05T16:48:16.497Z,4.00
2022-11-05T16:50:43.425Z,7.03
2022-11-05T16:53:10.123Z,8.30
2022-11-05T16:55:38.644Z,7.18
2022-11-05T16:58:06.421Z,9.65
2022-11-05T17:00:33.377Z,8.43
2022-11-05T17:02:59.944Z,8.50
2022-11-05T17:05:29.913Z,6.10
2022-11-05T17:07:57.287Z,7.65
2022-11-05T17:10:25.478Z,4.95
2022-11-05T17:12:52.230Z,5.30
2022-11-05T17:15:28.257Z,5.22
2022-11-05T17:17:55.254Z,5.32
2022-11-05T17:20:42.388Z,5.78
2022-11-05T17:23:11.300Z,5.63
2022-11-05T17:25:39.372Z,4.73
2022-11-05T17:28:06.832Z,4.63
2022-11-05T17:30:33.353Z,4.90
2022-11-05T17:32:59.932Z,5.72
2022-11-05T17:35:27.122Z,6.95
2022-11-05T17:37:53.635Z,9.02
2022-11-05T17:40:24.865Z,8.15
2022-11-05T17:42:52.641Z,7.07
2022-11-05T17:45:22.042Z,10.43
2022-11-05T17:47:48.864Z,8.15
2022-11-05T17:50:17.398Z,6.38
2022-11-05T17:52:44.539Z,6.13
2022-11-05T17:55:17.641Z,5.50
2022-11-05T17:57:48.417Z,7.30
2022-11-05T18:00:18.284Z,7.03
2022-11-05T18:03:09.622Z,7.13
2022-11-05T18:05:37.807Z,6.30
2022-11-05T18:08:05.142Z,4.88
2022-11-05T18:10:32.739Z,4.30
2022-11-05T18:12:59.284Z,5.45
2022-11-05T18:15:25.793Z,4.78
2022-11-05T18:17:52.322Z,19.67
2022-11-05T18:20:19.730Z,16.55
2022-11-05T18:22:49.714Z,27.80
2022-11-05T18:25:17.410Z,19.33
2022-11-05T18:27:44.320Z,10.60
2022-11-05T18:30:13.950Z,7.70
2022-11-05T18:32:40.527Z,6.90
2022-11-05T18:35:07.440Z,5.43
2022-11-05T18:37:34.013Z,5.65
2022-11-05T18:40:00.509Z,5.88
2022-11-05T18:42:27.021Z,6.20
2022-11-05T18:44:53.714Z,7.43
2022-11-05T18:47:20.439Z,7.15
2022-11-05T18:49:46.984Z,6.78
2022-11-05T18:52:13.714Z,8.63
2022-11-05T18:54:40.277Z,6.13
2022-11-05T18:57:07.077Z,6.78
2022-11-05T18:59:38.819Z,7.03
2022-11-05T19:02:09.036Z,5.45
2022-11-05T19:04:37.081Z,7.13
2022-11-05T19:07:05.403Z,8.52
2022-11-05T19:09:34.360Z,6.65
2022-11-05T19:12:01.487Z,6.15
2022-11-05T19:14:30.518Z,5.78
2022-11-05T19:17:11.133Z,7.43
2022-11-05T19:19:38.320Z,5.93
2022-11-05T19:22:05.566Z,6.45
2022-11-05T19:24:32.072Z,8.27
2022-11-05T19:26:58.536Z,6.72
2022-11-05T19:29:25.049Z,6.85
2022-11-05T19:31:51.544Z,7.53
2022-11-05T19:34:18.079Z,8.57
2022-11-05T19:36:44.858Z,7.88
2022-11-05T19:39:14.148Z,9.45
2022-11-05T19:41:40.978Z,10.20
2022-11-05T19:44:07.954Z,10.05
2022-11-05T19:46:34.565Z,8.32
2022-11-05T19:49:01.540Z,8.65
2022-11-05T19:51:30.484Z,9.10
2022-11-05T19:53:58.144Z,8.80
2022-11-05T19:56:27.593Z,9.93
2022-11-05T19:58:54.645Z,8.57
2022-11-05T20:01:23.186Z,8.02
2022-11-05T20:03:50.417Z,8.40
2022-11-05T20:06:23.543Z,6.60
2022-11-05T20:09:19.869Z,6.07
2022-11-05T20:11:37.755Z,8.32
2022-11-05T20:14:05.416Z,9.20
2022-11-05T20:16:42.819Z,8.05
2022-11-05T20:19:14.076Z,7.55
2022-11-05T20:21:41.464Z,6.93
2022-11-05T20:24:08.415Z,6.88
2022-11-05T20:26:34.921Z,7.30
2022-11-05T20:29:01.546Z,7.55
2022-11-05T20:31:28.127Z,7.00
2022-11-05T20:33:54.666Z,7.82
2022-11-05T20:36:23.506Z,8.43
2022-11-05T20:38:52.094Z,8.60
2022-11-05T20:41:19.110Z,7.57
2022-11-05T20:43:46.847Z,7.28
2022-11-05T20:46:17.662Z,10.05
2022-11-05T20:48:45.057Z,19.35
2022-11-05T20:51:17.436Z,19.73
2022-11-05T20:53:46.172Z,18.27
2022-11-05T20:56:22.606Z,16.45
2022-11-05T20:58:49.947Z,15.60
2022-11-05T21:01:17.614Z,15.25
2022-11-05T21:03:45.441Z,12.25
2022-11-05T21:06:13.098Z,11.68
2022-11-05T21:08:39.637Z,11.75
2022-11-05T21:11:07.077Z,10.02
2022-11-05T21:13:34.044Z,9.77
2022-11-05T21:16:01.185Z,9.88
2022-11-05T21:18:31.005Z,11.70
2022-11-05T21:20:59.914Z,8.73
2022-11-05T21:23:29.474Z,8.60
2022-11-05T21:25:56.039Z,9.55
2022-11-05T21:28:23.009Z,9.30
2022-11-05T21:30:49.591Z,8.90
2022-11-05T21:33:18.080Z,10.07
2022-11-05T21:35:47.736Z,8.93
2022-11-05T21:38:16.519Z,8.32
2022-11-05T21:40:44.446Z,6.85
2022-11-05T21:43:11.627Z,8.52
2022-11-05T21:45:39.865Z,7.93
2022-11-05T21:48:07.422Z,9.27
2022-11-05T21:50:52.895Z,8.38
2022-11-05T21:53:38.702Z,8.88
2022-11-05T21:56:29.720Z,8.13
2022-11-05T21:59:34.744Z,9.05
2022-11-05T22:02:01.948Z,8.10
2022-11-05T22:04:34.333Z,9.13
2022-11-05T22:07:01.234Z,8.52
2022-11-05T22:09:28.371Z,11.68
2022-11-05T22:11:55.492Z,7.97
2022-11-05T22:14:22.509Z,10.43
2022-11-05T22:16:49.013Z,12.80
2022-11-05T22:19:15.562Z,9.48
2022-11-05T22:21:42.318Z,8.02
2022-11-05T22:24:09.335Z,8.32
2022-11-05T22:26:37.604Z,8.40
2022-11-05T22:29:05.155Z,9.02
2022-11-05T22:31:37.847Z,8.15
2022-11-05T22:34:06.063Z,8.70
2022-11-05T22:36:33.982Z,7.35
2022-11-05T22:39:00.816Z,8.23
2022-11-05T22:41:27.326Z,8.98
2022-11-05T22:43:53.933Z,8.40
2022-11-05T22:46:23.096Z,9.38
2022-11-05T22:48:50.449Z,8.17
2022-11-05T22:51:22.260Z,8.57
2022-11-05T22:53:49.284Z,8.95
2022-11-05T22:56:19.890Z,11.27
2022-11-05T22:58:47.134Z,9.13
2022-11-05T23:01:15.718Z,10.02
2022-11-05T23:03:44.155Z,9.15
2022-11-05T23:06:33.814Z,9.40
2022-11-05T23:09:19.657Z,13.48
2022-11-05T23:11:49.353Z,12.10
2022-11-05T23:14:16.374Z,9.52
2022-11-05T23:17:02.130Z,7.63
2022-11-05T23:19:47.592Z,9.10
2022-11-05T23:22:42.169Z,8.95
2022-11-05T23:25:13.568Z,9.27
2022-11-05T23:27:40.867Z,8.57
2022-11-05T23:30:20.252Z,10.60
2022-11-05T23:32:47.267Z,7.85
2022-11-05T23:35:14.054Z,10.05
2022-11-05T23:37:59.154Z,10.18
2022-11-05T23:40:28.614Z,8.90
2022-11-05T23:43:14.406Z,9.50
2022-11-05T23:45:54.745Z,10.00
2022-11-05T23:48:35.516Z,8.73
2022-11-05T23:51:05.140Z,9.07
2022-11-05T23:53:34.792Z,12.57
2022-11-05T23:56:11.408Z,10.38
2022-11-05T23:58:39.501Z,9.38
